sensor_id;sensor_type;location;lat;lon;timestamp;P1;durP1;ratioP1;P2;durP2;ratioP2
26060;SDS011;36331;51.378;0.018;2023-04-25T00:01:22;43.65;;;10.02;;
26060;SDS011;36331;51.378;0.018;2023-04-25T00:03:51;45.53;;;9.00;;
26060;SDS011;36331;51.378;0.018;2023-04-25T00:06:22;42.92;;;10.38;;
26060;SDS011;36331;51.378;0.018;2023-04-25T00:08:53;46.20;;;10.18;;
26060;SDS011;36331;51.378;0.018;2023-04-25T00:11:25;39.65;;;10.02;;
26060;SDS011;36331;51.378;0.018;2023-04-25T00:13:54;45.47;;;10.73;;
26060;SDS011;36331;51.378;0.018;2023-04-25T00:16:24;45.67;;;10.25;;
26060;SDS011;36331;51.378;0.018;2023-04-25T00:18:53;43.03;;;11.18;;
26060;SDS011;36331;51.378;0.018;2023-04-25T00:21:24;32.47;;;7.93;;
26060;SDS011;36331;51.378;0.018;2023-04-25T00:23:53;40.05;;;9.50;;
26060;SDS011;36331;51.378;0.018;2023-04-25T00:26:24;45.45;;;10.52;;
26060;SDS011;36331;51.378;0.018;2023-04-25T00:28:54;44.77;;;10.43;;
26060;SDS011;36331;51.378;0.018;2023-04-25T00:31:23;40.97;;;9.63;;
26060;SDS011;36331;51.378;0.018;2023-04-25T00:33:52;45.47;;;10.75;;
26060;SDS011;36331;51.378;0.018;2023-04-25T00:36:21;36.63;;;8.52;;
26060;SDS011;36331;51.378;0.018;2023-04-25T00:38:51;48.13;;;11.13;;
26060;SDS011;36331;51.378;0.018;2023-04-25T00:41:22;35.33;;;8.27;;
26060;SDS011;36331;51.378;0.018;2023-04-25T00:43:52;38.83;;;9.55;;
26060;SDS011;36331;51.378;0.018;2023-04-25T00:46:22;45.15;;;10.18;;
26060;SDS011;36331;51.378;0.018;2023-04-25T00:48:52;42.60;;;9.55;;
26060;SDS011;36331;51.378;0.018;2023-04-25T00:51:23;46.40;;;9.95;;
26060;SDS011;36331;51.378;0.018;2023-04-25T00:53:55;40.80;;;8.75;;
26060;SDS011;36331;51.378;0.018;2023-04-25T00:56:24;46.13;;;9.50;;
26060;SDS011;36331;51.378;0.018;2023-04-25T00:58:54;46.65;;;10.05;;
26060;SDS011;36331;51.378;0.018;2023-04-25T01:01:27;38.70;;;8.75;;
26060;SDS011;36331;51.378;0.018;2023-04-25T01:03:57;42.42;;;9.25;;
26060;SDS011;36331;51.378;0.018;2023-04-25T01:06:27;40.40;;;9.30;;
26060;SDS011;36331;51.378;0.018;2023-04-25T01:08:57;38.42;;;9.00;;
26060;SDS011;36331;51.378;0.018;2023-04-25T01:11:26;39.47;;;9.50;;
26060;SDS011;36331;51.378;0.018;2023-04-25T01:13:57;33.97;;;7.65;;
26060;SDS011;36331;51.378;0.018;2023-04-25T01:16:27;41.10;;;9.05;;
26060;SDS011;36331;51.378;0.018;2023-04-25T01:18:57;34.95;;;8.48;;
26060;SDS011;36331;51.378;0.018;2023-04-25T01:21:31;37.50;;;8.85;;
26060;SDS011;36331;51.378;0.018;2023-04-25T01:24:05;39.70;;;8.57;;
26060;SDS011;36331;51.378;0.018;2023-04-25T01:26:34;32.55;;;6.93;;
26060;SDS011;36331;51.378;0.018;2023-04-25T01:29:05;40.92;;;8.20;;
26060;SDS011;36331;51.378;0.018;2023-04-25T01:31:35;32.78;;;7.65;;
26060;SDS011;36331;51.378;0.018;2023-04-25T01:34:05;45.90;;;9.75;;
26060;SDS011;36331;51.378;0.018;2023-04-25T01:36:36;35.40;;;8.73;;
26060;SDS011;36331;51.378;0.018;2023-04-25T01:39:06;40.63;;;9.25;;
26060;SDS011;36331;51.378;0.018;2023-04-25T01:41:36;35.97;;;7.72;;
26060;SDS011;36331;51.378;0.018;2023-04-25T01:44:05;36.83;;;8.00;;
26060;SDS011;36331;51.378;0.018;2023-04-25T01:46:35;40.60;;;8.77;;
26060;SDS011;36331;51.378;0.018;2023-04-25T01:49:05;36.95;;;8.73;;
26060;SDS011;36331;51.378;0.018;2023-04-25T01:51:36;35.28;;;7.15;;
26060;SDS011;36331;51.378;0.018;2023-04-25T01:54:05;34.27;;;6.97;;
26060;SDS011;36331;51.378;0.018;2023-04-25T01:56:36;31.63;;;6.97;;
26060;SDS011;36331;51.378;0.018;2023-04-25T01:59:08;40.85;;;8.27;;
26060;SDS011;36331;51.378;0.018;2023-04-25T02:01:54;37.88;;;8.07;;
26060;SDS011;36331;51.378;0.018;2023-04-25T02:04:28;41.60;;;9.18;;
26060;SDS011;36331;51.378;0.018;2023-04-25T02:07:00;36.83;;;8.05;;
26060;SDS011;36331;51.378;0.018;2023-04-25T02:09:38;33.42;;;8.60;;
26060;SDS011;36331;51.378;0.018;2023-04-25T02:12:10;36.85;;;9.23;;
26060;SDS011;36331;51.378;0.018;2023-04-25T02:14:58;35.30;;;8.43;;
26060;SDS011;36331;51.378;0.018;2023-04-25T02:17:41;27.75;;;6.55;;
26060;SDS011;36331;51.378;0.018;2023-04-25T02:20:12;36.00;;;7.75;;
26060;SDS011;36331;51.378;0.018;2023-04-25T02:22:44;30.73;;;6.95;;
26060;SDS011;36331;51.378;0.018;2023-04-25T02:25:13;43.65;;;8.23;;
26060;SDS011;36331;51.378;0.018;2023-04-25T02:27:43;42.30;;;8.43;;
26060;SDS011;36331;51.378;0.018;2023-04-25T02:30:13;35.72;;;9.05;;
26060;SDS011;36331;51.378;0.018;2023-04-25T02:32:43;45.80;;;8.90;;
26060;SDS011;36331;51.378;0.018;2023-04-25T02:35:12;38.58;;;7.95;;
26060;SDS011;36331;51.378;0.018;2023-04-25T02:37:42;33.92;;;8.38;;
26060;SDS011;36331;51.378;0.018;2023-04-25T02:40:14;23.48;;;5.43;;
26060;SDS011;36331;51.378;0.018;2023-04-25T02:42:43;31.17;;;6.60;;
26060;SDS011;36331;51.378;0.018;2023-04-25T02:45:13;34.22;;;7.88;;
26060;SDS011;36331;51.378;0.018;2023-04-25T02:47:43;33.92;;;7.25;;
26060;SDS011;36331;51.378;0.018;2023-04-25T02:50:12;37.95;;;9.05;;
26060;SDS011;36331;51.378;0.018;2023-04-25T02:52:41;32.13;;;7.60;;
26060;SDS011;36331;51.378;0.018;2023-04-25T02:55:16;33.35;;;7.80;;
26060;SDS011;36331;51.378;0.018;2023-04-25T02:57:47;33.47;;;7.30;;
26060;SDS011;36331;51.378;0.018;2023-04-25T03:00:28;38.85;;;8.38;;
26060;SDS011;36331;51.378;0.018;2023-04-25T03:02:57;29.20;;;6.55;;
26060;SDS011;36331;51.378;0.018;2023-04-25T03:05:27;34.13;;;8.23;;
26060;SDS011;36331;51.378;0.018;2023-04-25T03:07:56;36.00;;;7.60;;
26060;SDS011;36331;51.378;0.018;2023-04-25T03:10:28;32.13;;;7.20;;
26060;SDS011;36331;51.378;0.018;2023-04-25T03:13:02;41.28;;;8.98;;
26060;SDS011;36331;51.378;0.018;2023-04-25T03:15:31;30.17;;;7.45;;
26060;SDS011;36331;51.378;0.018;2023-04-25T03:18:01;35.42;;;8.35;;
26060;SDS011;36331;51.378;0.018;2023-04-25T03:20:30;41.17;;;8.68;;
26060;SDS011;36331;51.378;0.018;2023-04-25T03:22:59;34.72;;;7.25;;
26060;SDS011;36331;51.378;0.018;2023-04-25T03:25:30;33.10;;;7.55;;
26060;SDS011;36331;51.378;0.018;2023-04-25T03:27:59;36.08;;;8.35;;
26060;SDS011;36331;51.378;0.018;2023-04-25T03:30:28;32.50;;;7.25;;
26060;SDS011;36331;51.378;0.018;2023-04-25T03:32:58;30.50;;;6.65;;
26060;SDS011;36331;51.378;0.018;2023-04-25T03:35:27;33.35;;;8.45;;
26060;SDS011;36331;51.378;0.018;2023-04-25T03:37:57;40.55;;;9.18;;
26060;SDS011;36331;51.378;0.018;2023-04-25T03:40:32;31.67;;;8.38;;
26060;SDS011;36331;51.378;0.018;2023-04-25T03:43:09;38.92;;;8.43;;
26060;SDS011;36331;51.378;0.018;2023-04-25T03:45:44;39.38;;;8.50;;
26060;SDS011;36331;51.378;0.018;2023-04-25T03:48:15;34.70;;;7.82;;
26060;SDS011;36331;51.378;0.018;2023-04-25T03:50:44;41.00;;;9.38;;
26060;SDS011;36331;51.378;0.018;2023-04-25T03:53:13;33.17;;;7.45;;
26060;SDS011;36331;51.378;0.018;2023-04-25T03:56:07;35.20;;;8.60;;
26060;SDS011;36331;51.378;0.018;2023-04-25T03:58:38;32.20;;;7.53;;
26060;SDS011;36331;51.378;0.018;2023-04-25T04:01:07;28.70;;;6.95;;
26060;SDS011;36331;51.378;0.018;2023-04-25T04:03:38;34.42;;;7.68;;
26060;SDS011;36331;51.378;0.018;2023-04-25T04:06:08;29.92;;;6.53;;
26060;SDS011;36331;51.378;0.018;2023-04-25T04:08:44;37.65;;;7.70;;
26060;SDS011;36331;51.378;0.018;2023-04-25T04:11:14;35.45;;;8.00;;
26060;SDS011;36331;51.378;0.018;2023-04-25T04:13:44;38.63;;;8.95;;
26060;SDS011;36331;51.378;0.018;2023-04-25T04:16:13;33.75;;;7.53;;
26060;SDS011;36331;51.378;0.018;2023-04-25T04:18:44;34.35;;;7.80;;
26060;SDS011;36331;51.378;0.018;2023-04-25T04:21:15;20.45;;;4.25;;
26060;SDS011;36331;51.378;0.018;2023-04-25T04:23:44;22.73;;;5.75;;
26060;SDS011;36331;51.378;0.018;2023-04-25T04:26:17;25.33;;;6.10;;
26060;SDS011;36331;51.378;0.018;2023-04-25T04:28:56;26.60;;;5.90;;
26060;SDS011;36331;51.378;0.018;2023-04-25T04:31:55;32.55;;;7.57;;
26060;SDS011;36331;51.378;0.018;2023-04-25T04:34:25;35.08;;;7.82;;
26060;SDS011;36331;51.378;0.018;2023-04-25T04:36:54;32.63;;;7.43;;
26060;SDS011;36331;51.378;0.018;2023-04-25T04:39:24;33.83;;;9.48;;
26060;SDS011;36331;51.378;0.018;2023-04-25T04:42:03;27.85;;;7.05;;
26060;SDS011;36331;51.378;0.018;2023-04-25T04:44:58;27.58;;;6.57;;
26060;SDS011;36331;51.378;0.018;2023-04-25T04:47:44;33.92;;;8.18;;
26060;SDS011;36331;51.378;0.018;2023-04-25T04:50:43;30.98;;;7.05;;
26060;SDS011;36331;51.378;0.018;2023-04-25T04:53:47;28.02;;;6.82;;
26060;SDS011;36331;51.378;0.018;2023-04-25T04:56:30;27.73;;;7.05;;
26060;SDS011;36331;51.378;0.018;2023-04-25T04:59:28;39.67;;;8.65;;
26060;SDS011;36331;51.378;0.018;2023-04-25T05:02:17;42.30;;;9.82;;
26060;SDS011;36331;51.378;0.018;2023-04-25T05:05:10;47.00;;;12.45;;
26060;SDS011;36331;51.378;0.018;2023-04-25T05:08:05;36.30;;;8.55;;
26060;SDS011;36331;51.378;0.018;2023-04-25T05:11:03;33.47;;;9.35;;
26060;SDS011;36331;51.378;0.018;2023-04-25T05:13:51;25.92;;;7.10;;
26060;SDS011;36331;51.378;0.018;2023-04-25T05:16:55;30.35;;;6.70;;
26060;SDS011;36331;51.378;0.018;2023-04-25T05:19:51;21.38;;;5.60;;
26060;SDS011;36331;51.378;0.018;2023-04-25T05:22:33;29.10;;;7.55;;
26060;SDS011;36331;51.378;0.018;2023-04-25T05:25:37;41.35;;;7.90;;
26060;SDS011;36331;51.378;0.018;2023-04-25T05:28:42;32.92;;;8.02;;
26060;SDS011;36331;51.378;0.018;2023-04-25T05:31:28;36.53;;;7.55;;
26060;SDS011;36331;51.378;0.018;2023-04-25T05:34:05;30.10;;;7.43;;
26060;SDS011;36331;51.378;0.018;2023-04-25T05:36:42;23.88;;;5.82;;
26060;SDS011;36331;51.378;0.018;2023-04-25T05:39:12;24.42;;;5.95;;
26060;SDS011;36331;51.378;0.018;2023-04-25T05:42:01;22.98;;;5.80;;
26060;SDS011;36331;51.378;0.018;2023-04-25T05:44:44;40.67;;;9.15;;
26060;SDS011;36331;51.378;0.018;2023-04-25T05:47:32;24.67;;;5.65;;
26060;SDS011;36331;51.378;0.018;2023-04-25T05:50:09;25.15;;;5.45;;
26060;SDS011;36331;51.378;0.018;2023-04-25T05:53:04;23.50;;;5.60;;
26060;SDS011;36331;51.378;0.018;2023-04-25T05:55:42;38.75;;;9.23;;
26060;SDS011;36331;51.378;0.018;2023-04-25T05:58:19;33.10;;;7.75;;
26060;SDS011;36331;51.378;0.018;2023-04-25T06:00:49;20.95;;;5.70;;
26060;SDS011;36331;51.378;0.018;2023-04-25T06:03:18;25.17;;;6.80;;
26060;SDS011;36331;51.378;0.018;2023-04-25T06:05:50;31.42;;;7.43;;
26060;SDS011;36331;51.378;0.018;2023-04-25T06:08:19;35.08;;;8.13;;
26060;SDS011;36331;51.378;0.018;2023-04-25T06:10:48;40.35;;;9.60;;
26060;SDS011;36331;51.378;0.018;2023-04-25T06:13:18;26.65;;;6.85;;
26060;SDS011;36331;51.378;0.018;2023-04-25T06:15:47;29.02;;;6.85;;
26060;SDS011;36331;51.378;0.018;2023-04-25T06:18:17;24.75;;;5.82;;
26060;SDS011;36331;51.378;0.018;2023-04-25T06:20:46;29.98;;;6.93;;
26060;SDS011;36331;51.378;0.018;2023-04-25T06:23:19;30.50;;;6.57;;
26060;SDS011;36331;51.378;0.018;2023-04-25T06:25:52;37.50;;;8.68;;
26060;SDS011;36331;51.378;0.018;2023-04-25T06:28:22;25.70;;;6.18;;
26060;SDS011;36331;51.378;0.018;2023-04-25T06:30:52;29.88;;;7.18;;
26060;SDS011;36331;51.378;0.018;2023-04-25T06:33:22;32.53;;;7.70;;
26060;SDS011;36331;51.378;0.018;2023-04-25T06:35:52;31.42;;;7.85;;
26060;SDS011;36331;51.378;0.018;2023-04-25T06:38:27;26.13;;;6.68;;
26060;SDS011;36331;51.378;0.018;2023-04-25T06:40:57;22.48;;;5.38;;
26060;SDS011;36331;51.378;0.018;2023-04-25T06:43:30;20.52;;;5.15;;
26060;SDS011;36331;51.378;0.018;2023-04-25T06:46:19;25.92;;;6.30;;
26060;SDS011;36331;51.378;0.018;2023-04-25T06:48:53;30.48;;;6.85;;
26060;SDS011;36331;51.378;0.018;2023-04-25T06:51:22;31.45;;;6.93;;
26060;SDS011;36331;51.378;0.018;2023-04-25T06:53:57;23.98;;;5.97;;
26060;SDS011;36331;51.378;0.018;2023-04-25T06:56:33;26.00;;;6.57;;
26060;SDS011;36331;51.378;0.018;2023-04-25T06:59:07;25.67;;;6.30;;
26060;SDS011;36331;51.378;0.018;2023-04-25T07:01:41;33.00;;;8.70;;
26060;SDS011;36331;51.378;0.018;2023-04-25T07:04:16;37.67;;;9.48;;
26060;SDS011;36331;51.378;0.018;2023-04-25T07:06:53;27.25;;;6.55;;
26060;SDS011;36331;51.378;0.018;2023-04-25T07:09:34;23.25;;;5.57;;
26060;SDS011;36331;51.378;0.018;2023-04-25T07:12:04;23.85;;;5.45;;
26060;SDS011;36331;51.378;0.018;2023-04-25T07:14:34;26.38;;;6.47;;
26060;SDS011;36331;51.378;0.018;2023-04-25T07:17:12;26.30;;;6.32;;
26060;SDS011;36331;51.378;0.018;2023-04-25T07:19:43;26.00;;;6.68;;
26060;SDS011;36331;51.378;0.018;2023-04-25T07:22:12;26.38;;;6.82;;
26060;SDS011;36331;51.378;0.018;2023-04-25T07:24:43;22.48;;;5.15;;
26060;SDS011;36331;51.378;0.018;2023-04-25T07:27:19;28.50;;;6.63;;
26060;SDS011;36331;51.378;0.018;2023-04-25T07:29:55;37.85;;;9.10;;
26060;SDS011;36331;51.378;0.018;2023-04-25T07:32:24;34.80;;;7.28;;
26060;SDS011;36331;51.378;0.018;2023-04-25T07:34:54;30.95;;;7.10;;
26060;SDS011;36331;51.378;0.018;2023-04-25T07:37:23;33.88;;;8.18;;
26060;SDS011;36331;51.378;0.018;2023-04-25T07:40:04;34.08;;;8.10;;
26060;SDS011;36331;51.378;0.018;2023-04-25T07:42:35;24.48;;;5.63;;
26060;SDS011;36331;51.378;0.018;2023-04-25T07:45:06;30.55;;;7.30;;
26060;SDS011;36331;51.378;0.018;2023-04-25T07:47:37;28.45;;;5.88;;
26060;SDS011;36331;51.378;0.018;2023-04-25T07:50:07;25.85;;;6.45;;
26060;SDS011;36331;51.378;0.018;2023-04-25T07:52:37;25.70;;;6.88;;
26060;SDS011;36331;51.378;0.018;2023-04-25T07:55:17;29.90;;;7.20;;
26060;SDS011;36331;51.378;0.018;2023-04-25T07:58:00;20.13;;;5.15;;
26060;SDS011;36331;51.378;0.018;2023-04-25T08:00:33;26.23;;;6.40;;
26060;SDS011;36331;51.378;0.018;2023-04-25T08:03:21;32.33;;;7.43;;
26060;SDS011;36331;51.378;0.018;2023-04-25T08:05:52;27.92;;;6.43;;
26060;SDS011;36331;51.378;0.018;2023-04-25T08:08:24;32.45;;;7.75;;
26060;SDS011;36331;51.378;0.018;2023-04-25T08:10:55;33.65;;;7.88;;
26060;SDS011;36331;51.378;0.018;2023-04-25T08:13:24;27.67;;;6.65;;
26060;SDS011;36331;51.378;0.018;2023-04-25T08:15:54;32.13;;;7.43;;
26060;SDS011;36331;51.378;0.018;2023-04-25T08:18:23;32.30;;;6.93;;
26060;SDS011;36331;51.378;0.018;2023-04-25T08:20:52;23.88;;;6.10;;
26060;SDS011;36331;51.378;0.018;2023-04-25T08:23:24;24.17;;;6.53;;
26060;SDS011;36331;51.378;0.018;2023-04-25T08:26:03;26.08;;;6.07;;
26060;SDS011;36331;51.378;0.018;2023-04-25T08:28:36;22.48;;;5.25;;
26060;SDS011;36331;51.378;0.018;2023-04-25T08:31:05;26.65;;;5.75;;
26060;SDS011;36331;51.378;0.018;2023-04-25T08:33:45;31.77;;;6.57;;
26060;SDS011;36331;51.378;0.018;2023-04-25T08:36:20;34.10;;;6.85;;
26060;SDS011;36331;51.378;0.018;2023-04-25T08:39:14;25.58;;;5.85;;
26060;SDS011;36331;51.378;0.018;2023-04-25T08:41:59;24.05;;;4.97;;
26060;SDS011;36331;51.378;0.018;2023-04-25T08:44:30;26.92;;;5.90;;
26060;SDS011;36331;51.378;0.018;2023-04-25T08:47:01;23.65;;;5.60;;
26060;SDS011;36331;51.378;0.018;2023-04-25T08:49:38;32.83;;;6.30;;
26060;SDS011;36331;51.378;0.018;2023-04-25T08:52:09;26.83;;;6.22;;
26060;SDS011;36331;51.378;0.018;2023-04-25T08:54:40;29.85;;;6.07;;
26060;SDS011;36331;51.378;0.018;2023-04-25T08:57:13;21.42;;;5.00;;
26060;SDS011;36331;51.378;0.018;2023-04-25T08:59:43;31.50;;;6.60;;
26060;SDS011;36331;51.378;0.018;2023-04-25T09:02:13;26.15;;;5.82;;
26060;SDS011;36331;51.378;0.018;2023-04-25T09:04:48;24.63;;;5.60;;
26060;SDS011;36331;51.378;0.018;2023-04-25T09:07:17;26.25;;;6.57;;
26060;SDS011;36331;51.378;0.018;2023-04-25T09:09:49;29.75;;;6.43;;
26060;SDS011;36331;51.378;0.018;2023-04-25T09:12:22;28.23;;;6.75;;
26060;SDS011;36331;51.378;0.018;2023-04-25T09:15:02;21.90;;;4.97;;
26060;SDS011;36331;51.378;0.018;2023-04-25T09:17:49;23.48;;;5.88;;
26060;SDS011;36331;51.378;0.018;2023-04-25T09:20:26;24.55;;;5.78;;
26060;SDS011;36331;51.378;0.018;2023-04-25T09:23:01;28.55;;;6.65;;
26060;SDS011;36331;51.378;0.018;2023-04-25T09:25:35;25.80;;;6.70;;
26060;SDS011;36331;51.378;0.018;2023-04-25T09:28:10;32.35;;;7.32;;
26060;SDS011;36331;51.378;0.018;2023-04-25T09:30:40;26.73;;;5.93;;
26060;SDS011;36331;51.378;0.018;2023-04-25T09:33:17;20.10;;;4.55;;
26060;SDS011;36331;51.378;0.018;2023-04-25T09:35:49;33.45;;;7.72;;
26060;SDS011;36331;51.378;0.018;2023-04-25T09:38:43;32.80;;;7.30;;
26060;SDS011;36331;51.378;0.018;2023-04-25T09:41:22;30.60;;;6.78;;
26060;SDS011;36331;51.378;0.018;2023-04-25T09:43:57;26.23;;;5.60;;
26060;SDS011;36331;51.378;0.018;2023-04-25T09:46:35;22.77;;;5.50;;
26060;SDS011;36331;51.378;0.018;2023-04-25T09:49:10;27.50;;;6.10;;
26060;SDS011;36331;51.378;0.018;2023-04-25T09:51:55;28.92;;;6.38;;
26060;SDS011;36331;51.378;0.018;2023-04-25T09:54:29;25.40;;;5.60;;
26060;SDS011;36331;51.378;0.018;2023-04-25T09:57:07;21.98;;;5.40;;
26060;SDS011;36331;51.378;0.018;2023-04-25T09:59:44;19.45;;;4.40;;
26060;SDS011;36331;51.378;0.018;2023-04-25T10:02:14;33.33;;;7.28;;
26060;SDS011;36331;51.378;0.018;2023-04-25T10:04:47;32.85;;;7.32;;
26060;SDS011;36331;51.378;0.018;2023-04-25T10:07:23;28.08;;;6.50;;
26060;SDS011;36331;51.378;0.018;2023-04-25T10:09:54;22.10;;;5.47;;
26060;SDS011;36331;51.378;0.018;2023-04-25T10:12:26;18.42;;;4.75;;
26060;SDS011;36331;51.378;0.018;2023-04-25T10:14:57;37.70;;;8.40;;
26060;SDS011;36331;51.378;0.018;2023-04-25T10:17:26;28.88;;;6.47;;
26060;SDS011;36331;51.378;0.018;2023-04-25T10:19:56;24.27;;;5.53;;
26060;SDS011;36331;51.378;0.018;2023-04-25T10:22:29;29.17;;;6.68;;
26060;SDS011;36331;51.378;0.018;2023-04-25T10:24:58;31.52;;;7.13;;
26060;SDS011;36331;51.378;0.018;2023-04-25T10:27:28;33.95;;;8.30;;
26060;SDS011;36331;51.378;0.018;2023-04-25T10:30:02;46.50;;;9.77;;
26060;SDS011;36331;51.378;0.018;2023-04-25T10:32:33;35.35;;;7.88;;
26060;SDS011;36331;51.378;0.018;2023-04-25T10:35:12;27.58;;;6.07;;
26060;SDS011;36331;51.378;0.018;2023-04-25T10:37:58;22.98;;;4.88;;
26060;SDS011;36331;51.378;0.018;2023-04-25T10:40:27;35.90;;;8.20;;
26060;SDS011;36331;51.378;0.018;2023-04-25T10:43:32;30.85;;;7.10;;
26060;SDS011;36331;51.378;0.018;2023-04-25T10:45:57;24.65;;;5.65;;
26060;SDS011;36331;51.378;0.018;2023-04-25T10:48:31;30.38;;;7.15;;
26060;SDS011;36331;51.378;0.018;2023-04-25T10:51:06;36.75;;;8.40;;
26060;SDS011;36331;51.378;0.018;2023-04-25T10:53:36;31.52;;;7.38;;
26060;SDS011;36331;51.378;0.018;2023-04-25T10:58:49;27.92;;;6.57;;
26060;SDS011;36331;51.378;0.018;2023-04-25T11:01:21;34.03;;;7.80;;
26060;SDS011;36331;51.378;0.018;2023-04-25T11:03:57;28.88;;;6.30;;
26060;SDS011;36331;51.378;0.018;2023-04-25T11:06:27;32.60;;;6.97;;
26060;SDS011;36331;51.378;0.018;2023-04-25T11:11:33;26.20;;;6.00;;
26060;SDS011;36331;51.378;0.018;2023-04-25T11:14:05;24.73;;;5.80;;
26060;SDS011;36331;51.378;0.018;2023-04-25T11:16:35;25.98;;;6.28;;
26060;SDS011;36331;51.378;0.018;2023-04-25T11:19:05;18.88;;;4.40;;
26060;SDS011;36331;51.378;0.018;2023-04-25T11:21:35;21.33;;;5.03;;
26060;SDS011;36331;51.378;0.018;2023-04-25T11:24:05;30.88;;;8.05;;
26060;SDS011;36331;51.378;0.018;2023-04-25T11:26:34;18.13;;;4.30;;
26060;SDS011;36331;51.378;0.018;2023-04-25T11:29:04;22.42;;;5.45;;
26060;SDS011;36331;51.378;0.018;2023-04-25T11:31:34;23.38;;;5.25;;
26060;SDS011;36331;51.378;0.018;2023-04-25T11:34:04;22.17;;;4.93;;
26060;SDS011;36331;51.378;0.018;2023-04-25T11:36:34;30.75;;;6.88;;
26060;SDS011;36331;51.378;0.018;2023-04-25T11:39:03;24.10;;;5.88;;
26060;SDS011;36331;51.378;0.018;2023-04-25T11:41:32;22.52;;;5.57;;
26060;SDS011;36331;51.378;0.018;2023-04-25T11:44:02;22.90;;;5.95;;
26060;SDS011;36331;51.378;0.018;2023-04-25T11:46:33;30.02;;;7.40;;
26060;SDS011;36331;51.378;0.018;2023-04-25T11:49:04;23.48;;;6.03;;
26060;SDS011;36331;51.378;0.018;2023-04-25T11:51:37;29.00;;;6.13;;
26060;SDS011;36331;51.378;0.018;2023-04-25T11:54:07;23.17;;;5.95;;
26060;SDS011;36331;51.378;0.018;2023-04-25T11:56:40;32.22;;;7.82;;
26060;SDS011;36331;51.378;0.018;2023-04-25T11:59:10;28.52;;;6.60;;
26060;SDS011;36331;51.378;0.018;2023-04-25T12:01:41;23.45;;;5.55;;
26060;SDS011;36331;51.378;0.018;2023-04-25T12:04:12;23.30;;;6.00;;
26060;SDS011;36331;51.378;0.018;2023-04-25T12:06:42;25.60;;;6.32;;
26060;SDS011;36331;51.378;0.018;2023-04-25T12:09:14;24.17;;;5.82;;
26060;SDS011;36331;51.378;0.018;2023-04-25T12:11:45;24.15;;;5.45;;
26060;SDS011;36331;51.378;0.018;2023-04-25T12:14:20;23.00;;;6.03;;
26060;SDS011;36331;51.378;0.018;2023-04-25T12:16:51;21.25;;;4.97;;
26060;SDS011;36331;51.378;0.018;2023-04-25T12:19:21;23.30;;;5.78;;
26060;SDS011;36331;51.378;0.018;2023-04-25T12:21:50;24.38;;;5.53;;
26060;SDS011;36331;51.378;0.018;2023-04-25T12:26:53;36.13;;;8.68;;
26060;SDS011;36331;51.378;0.018;2023-04-25T12:29:23;35.92;;;8.23;;
26060;SDS011;36331;51.378;0.018;2023-04-25T12:32:00;36.95;;;8.65;;
26060;SDS011;36331;51.378;0.018;2023-04-25T12:34:31;25.85;;;6.43;;
26060;SDS011;36331;51.378;0.018;2023-04-25T12:37:03;32.63;;;8.00;;
26060;SDS011;36331;51.378;0.018;2023-04-25T12:39:32;35.33;;;8.52;;
26060;SDS011;36331;51.378;0.018;2023-04-25T12:42:01;24.58;;;5.78;;
26060;SDS011;36331;51.378;0.018;2023-04-25T12:44:35;21.45;;;5.63;;
26060;SDS011;36331;51.378;0.018;2023-04-25T12:47:04;19.77;;;5.20;;
26060;SDS011;36331;51.378;0.018;2023-04-25T12:49:35;16.52;;;4.38;;
26060;SDS011;36331;51.378;0.018;2023-04-25T12:52:04;18.50;;;4.35;;
26060;SDS011;36331;51.378;0.018;2023-04-25T12:54:35;27.20;;;5.93;;
26060;SDS011;36331;51.378;0.018;2023-04-25T12:57:06;26.33;;;6.03;;
26060;SDS011;36331;51.378;0.018;2023-04-25T12:59:35;29.17;;;6.45;;
26060;SDS011;36331;51.378;0.018;2023-04-25T13:02:04;27.10;;;6.70;;
26060;SDS011;36331;51.378;0.018;2023-04-25T13:04:34;26.80;;;6.40;;
26060;SDS011;36331;51.378;0.018;2023-04-25T13:07:04;25.17;;;6.20;;
26060;SDS011;36331;51.378;0.018;2023-04-25T13:09:33;28.90;;;6.20;;
26060;SDS011;36331;51.378;0.018;2023-04-25T13:12:02;22.75;;;5.50;;
26060;SDS011;36331;51.378;0.018;2023-04-25T13:14:31;23.95;;;6.07;;
26060;SDS011;36331;51.378;0.018;2023-04-25T13:17:00;21.38;;;4.78;;
26060;SDS011;36331;51.378;0.018;2023-04-25T13:19:30;27.10;;;6.20;;
26060;SDS011;36331;51.378;0.018;2023-04-25T13:22:00;25.63;;;5.90;;
26060;SDS011;36331;51.378;0.018;2023-04-25T13:26:59;24.77;;;5.53;;
26060;SDS011;36331;51.378;0.018;2023-04-25T13:29:29;24.70;;;5.45;;
26060;SDS011;36331;51.378;0.018;2023-04-25T13:31:58;23.70;;;5.68;;
26060;SDS011;36331;51.378;0.018;2023-04-25T13:34:29;25.83;;;5.63;;
26060;SDS011;36331;51.378;0.018;2023-04-25T13:36:58;23.83;;;5.35;;
26060;SDS011;36331;51.378;0.018;2023-04-25T13:39:29;22.65;;;5.63;;
26060;SDS011;36331;51.378;0.018;2023-04-25T13:41:58;27.55;;;6.63;;
26060;SDS011;36331;51.378;0.018;2023-04-25T13:44:27;22.58;;;5.57;;
26060;SDS011;36331;51.378;0.018;2023-04-25T13:46:56;23.05;;;5.97;;
26060;SDS011;36331;51.378;0.018;2023-04-25T13:49:27;19.70;;;4.65;;
26060;SDS011;36331;51.378;0.018;2023-04-25T13:51:57;20.30;;;4.97;;
26060;SDS011;36331;51.378;0.018;2023-04-25T13:54:25;17.90;;;3.85;;
26060;SDS011;36331;51.378;0.018;2023-04-25T13:56:56;22.40;;;5.22;;
26060;SDS011;36331;51.378;0.018;2023-04-25T13:59:26;22.23;;;6.03;;
26060;SDS011;36331;51.378;0.018;2023-04-25T14:01:55;22.25;;;5.32;;
26060;SDS011;36331;51.378;0.018;2023-04-25T14:04:24;18.85;;;5.28;;
26060;SDS011;36331;51.378;0.018;2023-04-25T14:06:54;19.27;;;4.80;;
26060;SDS011;36331;51.378;0.018;2023-04-25T14:09:23;22.48;;;4.97;;
26060;SDS011;36331;51.378;0.018;2023-04-25T14:11:55;18.77;;;4.82;;
26060;SDS011;36331;51.378;0.018;2023-04-25T14:14:24;23.65;;;5.45;;
26060;SDS011;36331;51.378;0.018;2023-04-25T14:16:53;25.98;;;6.05;;
26060;SDS011;36331;51.378;0.018;2023-04-25T14:19:24;25.45;;;6.28;;
26060;SDS011;36331;51.378;0.018;2023-04-25T14:21:53;24.42;;;5.93;;
26060;SDS011;36331;51.378;0.018;2023-04-25T14:24:22;18.20;;;4.43;;
26060;SDS011;36331;51.378;0.018;2023-04-25T14:26:52;20.52;;;5.00;;
26060;SDS011;36331;51.378;0.018;2023-04-25T14:29:22;28.10;;;6.05;;
26060;SDS011;36331;51.378;0.018;2023-04-25T14:31:51;24.98;;;5.68;;
26060;SDS011;36331;51.378;0.018;2023-04-25T14:34:21;26.02;;;7.40;;
26060;SDS011;36331;51.378;0.018;2023-04-25T14:36:51;25.08;;;5.93;;
26060;SDS011;36331;51.378;0.018;2023-04-25T14:39:20;25.08;;;5.95;;
26060;SDS011;36331;51.378;0.018;2023-04-25T14:41:49;22.63;;;5.70;;
26060;SDS011;36331;51.378;0.018;2023-04-25T14:44:21;29.23;;;7.00;;
26060;SDS011;36331;51.378;0.018;2023-04-25T14:46:51;26.15;;;6.57;;
26060;SDS011;36331;51.378;0.018;2023-04-25T14:49:21;23.85;;;5.63;;
26060;SDS011;36331;51.378;0.018;2023-04-25T14:51:50;22.45;;;5.43;;
26060;SDS011;36331;51.378;0.018;2023-04-25T14:54:19;22.30;;;5.75;;
26060;SDS011;36331;51.378;0.018;2023-04-25T14:56:49;31.67;;;7.95;;
26060;SDS011;36331;51.378;0.018;2023-04-25T14:59:18;22.50;;;5.57;;
26060;SDS011;36331;51.378;0.018;2023-04-25T15:01:48;21.40;;;5.40;;
26060;SDS011;36331;51.378;0.018;2023-04-25T15:04:25;27.50;;;6.50;;
26060;SDS011;36331;51.378;0.018;2023-04-25T15:06:55;33.10;;;7.50;;
26060;SDS011;36331;51.378;0.018;2023-04-25T15:09:24;22.75;;;5.63;;
26060;SDS011;36331;51.378;0.018;2023-04-25T15:11:53;29.95;;;7.18;;
26060;SDS011;36331;51.378;0.018;2023-04-25T15:14:22;25.58;;;6.20;;
26060;SDS011;36331;51.378;0.018;2023-04-25T15:16:52;22.35;;;6.45;;
26060;SDS011;36331;51.378;0.018;2023-04-25T15:19:22;21.13;;;5.45;;